Ternholm — OWIM2 — position and weather

sailwx.info

Track history (hours):
 
Tides and Currents Weather Stations Pressure Air Temp Water Temp Dewpoint Dewpoint Depression Visibility Wind Speed Wind Dir Waves Ship Positions

Ternholm

Last reported at 2014-Jul-29 22:34 UTC. Time now 2014-Jul-29 22:59 UTC.
Position N 56°59' E 017°31'.

Length 141 m; draft 8.7 m.

Type: Ship (hazmat cat C). MMSI: 219076000.

Date/timePositionNaut miles runAvg speedWind from/ knotsBaromVisibWave heightAir tempDewpointWater temp
2014-Jul-29 22:34N 56°59' E 017°31'1211.6
2014-Jul-29 21:33N 56°48' E 017°23'1211.6
2014-Jul-29 20:33N 56°38' E 017°15'1211.5
2014-Jul-29 19:33N 56°27' E 017°08'1111.4
2014-Jul-29 18:33N 56°16' E 016°60'1211.5
2014-Jul-29 17:33N 56°06' E 016°51'1111.2
2014-Jul-29 16:34N 55°59' E 016°35'1111.4
2014-Jul-29 15:33N 55°54' E 016°17'1211.6
2014-Jul-29 14:33N 55°49' E 015°58'1111.3
2014-Jul-29 13:33N 55°43' E 015°41'7 6.6
2014-Jul-29 12:33N 55°40' E 015°30'1111.5
2014-Jul-29 11:34N 55°35' E 015°12'1111.3
2014-Jul-29 10:33N 55°29' E 014°55'1111.4
2014-Jul-29 09:33N 55°23' E 014°38'1111.4
2014-Jul-29 08:33N 55°14' E 014°25'1111.4
2014-Jul-29 07:33N 55°05' E 014°13'1111.0
2014-Jul-29 06:34N 54°59' E 013°57'1211.5
2014-Jul-29 05:33N 54°56' E 013°37'1111.5
2014-Jul-29 04:34N 54°52' E 013°18'1211.6
2014-Jul-29 03:33N 54°48' E 012°59'1111.4
2014-Jul-29 02:33N 54°44' E 012°41'1111.4
2014-Jul-29 01:33N 54°38' E 012°25'1010.5
2014-Jul-29 00:34N 54°29' E 012°14'10 9.9
2014-Jul-28 23:33N 54°25' E 011°59'1111.2
2014-Jul-28 22:33N 54°27' E 011°40'1211.7
2014-Jul-28 21:33N 54°32' E 011°22'1211.7
2014-Jul-28 20:33N 54°37' E 011°04'8310.3
2014-Jul-28 12:28N 56°01' E 011°04'1011.2
2014-Jul-28 11:33N 56°09' E 011°14'1211.5
2014-Jul-28 10:29N 56°20' E 011°25'1111.5
2014-Jul-28 09:33N 56°29' E 011°35'1111.3
2014-Jul-28 08:33N 56°39' E 011°45'1110.7
2014-Jul-28 07:33N 56°49' E 011°50'1211.5
2014-Jul-28 06:33N 56°60' E 011°43'1211.6
2014-Jul-28 05:32N 57°11' E 011°35'1111.5
2014-Jul-28 04:33N 57°21' E 011°29'1010.4
2014-Jul-28 03:33N 57°31' E 011°34'1110.8
2014-Jul-28 02:34N 57°40' E 011°47'3 3.4
2014-Jul-28 01:32N 57°41' E 011°52'0 0.0
2014-Jul-28 00:32N 57°41' E 011°52'0 0.0
2014-Jul-27 23:32N 57°41' E 011°52'0 0.0
2014-Jul-27 22:32N 57°41' E 011°52'0 0.0
2014-Jul-27 21:32N 57°41' E 011°52'0 0.0
2014-Jul-27 20:32N 57°41' E 011°52'0 0.0
2014-Jul-27 19:32N 57°41' E 011°52'0 0.0
2014-Jul-27 18:32N 57°41' E 011°52'0 0.0
2014-Jul-27 17:32N 57°41' E 011°52'0 0.0
2014-Jul-27 16:32N 57°41' E 011°52'0 0.0
2014-Jul-27 15:32N 57°41' E 011°52'0 0.0
2014-Jul-27 14:32N 57°41' E 011°52'0 0.0
2014-Jul-27 13:32N 57°41' E 011°52'0 0.0
2014-Jul-27 12:32N 57°41' E 011°52'0 0.0
2014-Jul-27 11:32N 57°41' E 011°52'0 0.0
2014-Jul-27 10:32N 57°41' E 011°52'0 0.0
2014-Jul-27 09:32N 57°41' E 011°52'0 0.0
2014-Jul-27 08:29N 57°41' E 011°52'0 0.0
2014-Jul-27 07:32N 57°41' E 011°52'0 0.0
2014-Jul-27 06:32N 57°41' E 011°52'0 0.0
2014-Jul-27 05:32N 57°41' E 011°52'0 0.2
2014-Jul-27 04:34N 57°41' E 011°52'9 9.0
2014-Jul-27 03:34N 57°35' E 011°40'1010.3
2014-Jul-27 02:33N 57°25' E 011°42'1110.9
2014-Jul-27 01:33N 57°16' E 011°52'1110.9
2014-Jul-27 00:33N 57°05' E 011°60'1211.2
2014-Jul-26 23:29N 56°54' E 012°06'1011.3
2014-Jul-26 22:34N 56°44' E 012°10'1111.3
2014-Jul-26 21:33N 56°33' E 012°14'1211.8
2014-Jul-26 20:34N 56°21' E 012°17'1111.4
2014-Jul-26 19:34N 56°11' E 012°26'1212.4
2014-Jul-26 18:34N 56°01' E 012°40'1111.1
2014-Jul-26 17:34N 55°51' E 012°44'1111.5
2014-Jul-26 16:34N 55°39' E 012°42'1211.9
2014-Jul-26 15:34N 55°27' E 012°42'10 9.9
2014-Jul-26 14:34N 55°18' E 012°46'1111.3
2014-Jul-26 13:34N 55°15' E 013°05'1211.6
2014-Jul-26 12:33N 55°14' E 013°26'1211.4
2014-Jul-26 11:32N 55°14' E 013°46'1211.7
2014-Jul-26 10:32N 55°13' E 014°07'1110.2
2014-Jul-26 09:27N 55°19' E 014°24'1112.1
2014-Jul-26 08:33N 55°27' E 014°36'1211.3
2014-Jul-26 07:32N 55°33' E 014°54'1111.3
2014-Jul-26 06:33N 55°38' E 015°11'1111.5
2014-Jul-26 05:33N 55°44' E 015°29'1111.4
2014-Jul-26 04:33N 55°50' E 015°46'1111.4
2014-Jul-26 03:33N 55°55' E 016°04'1111.3
2014-Jul-26 02:33N 56°01' E 016°21'1211.6
2014-Jul-26 01:33N 56°08' E 016°38'1111.1
2014-Jul-26 00:33N 56°17' E 016°50'1211.5
2014-Jul-25 23:33N 56°27' E 016°58'1211.5
2014-Jul-25 22:33N 56°38' E 017°05'1111.4
2014-Jul-25 21:33N 56°49' E 017°13'1111.3
2014-Jul-25 20:33N 56°59' E 017°20'1111.4
2014-Jul-25 19:33N 57°10' E 017°28'1111.2
2014-Jul-25 18:33N 57°20' E 017°35'1111.2
2014-Jul-25 17:33N 57°30' E 017°44'1111.5
2014-Jul-25 16:33N 57°40' E 017°54'1111.4
2014-Jul-25 15:33N 57°50' E 018°05'1111.4
2014-Jul-25 14:33N 58°00' E 018°16'1111.5
2014-Jul-25 13:33N 58°10' E 018°26'1111.4
2014-Jul-25 12:33N 58°20' E 018°37'1211.5
2014-Jul-25 11:33N 58°30' E 018°49'1212.1
2014-Jul-25 10:34N 58°40' E 019°00'1211.7
2014-Jul-25 09:33N 58°50' E 019°12'1111.4
2014-Jul-25 08:34N 59°00' E 019°23'1111.3
2014-Jul-25 07:33N 59°10' E 019°34'1111.3
2014-Jul-25 06:33N 59°20' E 019°45'1111.5
2014-Jul-25 05:33N 59°30' E 019°57'2410.8
2014-Jul-25 03:21N 59°51' E 019°34'911.4
2014-Jul-25 02:33N 59°58' E 019°23'1211.5
2014-Jul-25 01:33N 60°06' E 019°08'1110.8
2014-Jul-25 00:33N 60°17' E 019°00'1111.5
2014-Jul-24 23:34N 60°28' E 018°59'1211.3
2014-Jul-24 22:29N 60°40' E 019°03'  
2014-Jul-22 01:33N 58°54' E 019°21'1211.8
2014-Jul-22 00:33N 58°44' E 019°07'1211.7
2014-Jul-21 23:33N 58°34' E 018°55'1211.9
2014-Jul-21 22:33N 58°24' E 018°44'1211.8
2014-Jul-21 21:33N 58°14' E 018°33'1211.9
2014-Jul-21 20:33N 58°03' E 018°22'311.8
2014-Jul-21 20:18N 58°01' E 018°19'911.8
2014-Jul-21 19:33N 57°53' E 018°12'1212.0
2014-Jul-21 18:33N 57°42' E 018°02'1211.7
2014-Jul-21 17:33N 57°32' E 017°52'1211.7
2014-Jul-21 16:33N 57°21' E 017°43'1212.3
2014-Jul-21 15:33N 57°09' E 017°35'1212.0
2014-Jul-21 14:33N 56°58' E 017°28'1211.7
2014-Jul-21 13:33N 56°47' E 017°21'1313.1
2014-Jul-21 12:33N 56°35' E 017°13'1211.8
2014-Jul-21 11:33N 56°24' E 017°04'2511.7
2014-Jul-21 09:27N 56°02' E 016°43'1111.9
2014-Jul-21 08:33N 55°56' E 016°27'6 5.6
2014-Jul-21 07:33N 55°54' E 016°19'1311.4
2014-Jul-21 06:26N 55°48' E 015°58'1011.8
2014-Jul-21 05:33N 55°43' E 015°42'1211.7
2014-Jul-21 04:33N 55°38' E 015°23'1211.6
2014-Jul-21 03:33N 55°32' E 015°05'1211.7
2014-Jul-21 02:33N 55°26' E 014°47'1211.7
2014-Jul-21 01:33N 55°19' E 014°32'1211.8
2014-Jul-21 00:33N 55°09' E 014°19'1211.7
2014-Jul-20 23:33N 55°01' E 014°06'1211.8
2014-Jul-20 22:33N 54°57' E 013°46'1211.8
2014-Jul-20 21:33N 54°53' E 013°26'1211.9
2014-Jul-20 20:33N 54°50' E 013°07'1211.9
2014-Jul-20 19:33N 54°46' E 012°47'1211.9
2014-Jul-20 18:33N 54°40' E 012°30'1211.9
2014-Jul-20 17:33N 54°32' E 012°15'1010.3
2014-Jul-20 16:33N 54°24' E 012°02'1212.0
2014-Jul-20 15:33N 54°26' E 011°41'1211.7
2014-Jul-20 14:33N 54°31' E 011°24'1211.7
2014-Jul-20 13:33N 54°37' E 011°06'1110.8
2014-Jul-20 12:31N 54°44' E 010°52'1110.9
2014-Jul-20 11:29N 54°56' E 010°54'5210.6
2014-Jul-20 06:33N 55°48' E 010°48'1111.2
2014-Jul-20 05:33N 55°57' E 010°60'1111.5
2014-Jul-20 04:33N 56°07' E 011°10'1211.6
2014-Jul-20 03:33N 56°16' E 011°22'1211.6
2014-Jul-20 02:33N 56°26' E 011°33'1211.6
2014-Jul-20 01:32N 56°37' E 011°43'1211.1
2014-Jul-20 00:28N 56°48' E 011°51'1211.8
2014-Jul-19 23:25N 56°59' E 011°43'  
Track history (hours):
 
Tides and Currents Weather Stations Pressure Air Temp Water Temp Dewpoint Dewpoint Depression Visibility Wind Speed Wind Dir Waves Ship Positions

Ternholm

Last reported at 2014-Jul-29 22:34 UTC. Time now 2014-Jul-29 22:59 UTC.
Position N 56°59' E 017°31'.

Length 141 m; draft 8.7 m.

Type: Ship (hazmat cat C). MMSI: 219076000.

Date/timePositionNaut miles runAvg speedWind from/ knotsBaromVisibWave heightAir tempDewpointWater temp
2014-Jul-29 22:34N 56°59' E 017°31'1211.6
2014-Jul-29 21:33N 56°48' E 017°23'1211.6
2014-Jul-29 20:33N 56°38' E 017°15'1211.5
2014-Jul-29 19:33N 56°27' E 017°08'1111.4
2014-Jul-29 18:33N 56°16' E 016°60'1211.5
2014-Jul-29 17:33N 56°06' E 016°51'1111.2
2014-Jul-29 16:34N 55°59' E 016°35'1111.4
2014-Jul-29 15:33N 55°54' E 016°17'1211.6
2014-Jul-29 14:33N 55°49' E 015°58'1111.3
2014-Jul-29 13:33N 55°43' E 015°41'7 6.6
2014-Jul-29 12:33N 55°40' E 015°30'1111.5
2014-Jul-29 11:34N 55°35' E 015°12'1111.3
2014-Jul-29 10:33N 55°29' E 014°55'1111.4
2014-Jul-29 09:33N 55°23' E 014°38'1111.4
2014-Jul-29 08:33N 55°14' E 014°25'1111.4
2014-Jul-29 07:33N 55°05' E 014°13'1111.0
2014-Jul-29 06:34N 54°59' E 013°57'1211.5
2014-Jul-29 05:33N 54°56' E 013°37'1111.5
2014-Jul-29 04:34N 54°52' E 013°18'1211.6
2014-Jul-29 03:33N 54°48' E 012°59'1111.4
2014-Jul-29 02:33N 54°44' E 012°41'1111.4
2014-Jul-29 01:33N 54°38' E 012°25'1010.5
2014-Jul-29 00:34N 54°29' E 012°14'10 9.9
2014-Jul-28 23:33N 54°25' E 011°59'1111.2
2014-Jul-28 22:33N 54°27' E 011°40'1211.7
2014-Jul-28 21:33N 54°32' E 011°22'1211.7
2014-Jul-28 20:33N 54°37' E 011°04'8310.3
2014-Jul-28 12:28N 56°01' E 011°04'1011.2
2014-Jul-28 11:33N 56°09' E 011°14'1211.5
2014-Jul-28 10:29N 56°20' E 011°25'1111.5
2014-Jul-28 09:33N 56°29' E 011°35'1111.3
2014-Jul-28 08:33N 56°39' E 011°45'1110.7
2014-Jul-28 07:33N 56°49' E 011°50'1211.5
2014-Jul-28 06:33N 56°60' E 011°43'1211.6
2014-Jul-28 05:32N 57°11' E 011°35'1111.5
2014-Jul-28 04:33N 57°21' E 011°29'1010.4
2014-Jul-28 03:33N 57°31' E 011°34'1110.8
2014-Jul-28 02:34N 57°40' E 011°47'3 3.4
2014-Jul-28 01:32N 57°41' E 011°52'0 0.0
2014-Jul-28 00:32N 57°41' E 011°52'0 0.0
2014-Jul-27 23:32N 57°41' E 011°52'0 0.0
2014-Jul-27 22:32N 57°41' E 011°52'0 0.0
2014-Jul-27 21:32N 57°41' E 011°52'0 0.0
2014-Jul-27 20:32N 57°41' E 011°52'0 0.0
2014-Jul-27 19:32N 57°41' E 011°52'0 0.0
2014-Jul-27 18:32N 57°41' E 011°52'0 0.0
2014-Jul-27 17:32N 57°41' E 011°52'0 0.0
2014-Jul-27 16:32N 57°41' E 011°52'0 0.0
2014-Jul-27 15:32N 57°41' E 011°52'0 0.0
2014-Jul-27 14:32N 57°41' E 011°52'0 0.0
2014-Jul-27 13:32N 57°41' E 011°52'0 0.0
2014-Jul-27 12:32N 57°41' E 011°52'0 0.0
2014-Jul-27 11:32N 57°41' E 011°52'0 0.0
2014-Jul-27 10:32N 57°41' E 011°52'0 0.0
2014-Jul-27 09:32N 57°41' E 011°52'0 0.0
2014-Jul-27 08:29N 57°41' E 011°52'0 0.0
2014-Jul-27 07:32N 57°41' E 011°52'0 0.0
2014-Jul-27 06:32N 57°41' E 011°52'0 0.0
2014-Jul-27 05:32N 57°41' E 011°52'0 0.2
2014-Jul-27 04:34N 57°41' E 011°52'9 9.0
2014-Jul-27 03:34N 57°35' E 011°40'1010.3
2014-Jul-27 02:33N 57°25' E 011°42'1110.9
2014-Jul-27 01:33N 57°16' E 011°52'1110.9
2014-Jul-27 00:33N 57°05' E 011°60'1211.2
2014-Jul-26 23:29N 56°54' E 012°06'1011.3
2014-Jul-26 22:34N 56°44' E 012°10'1111.3
2014-Jul-26 21:33N 56°33' E 012°14'1211.8
2014-Jul-26 20:34N 56°21' E 012°17'1111.4
2014-Jul-26 19:34N 56°11' E 012°26'1212.4
2014-Jul-26 18:34N 56°01' E 012°40'1111.1
2014-Jul-26 17:34N 55°51' E 012°44'1111.5
2014-Jul-26 16:34N 55°39' E 012°42'1211.9
2014-Jul-26 15:34N 55°27' E 012°42'10 9.9
2014-Jul-26 14:34N 55°18' E 012°46'1111.3
2014-Jul-26 13:34N 55°15' E 013°05'1211.6
2014-Jul-26 12:33N 55°14' E 013°26'1211.4
2014-Jul-26 11:32N 55°14' E 013°46'1211.7
2014-Jul-26 10:32N 55°13' E 014°07'1110.2
2014-Jul-26 09:27N 55°19' E 014°24'1112.1
2014-Jul-26 08:33N 55°27' E 014°36'1211.3
2014-Jul-26 07:32N 55°33' E 014°54'1111.3
2014-Jul-26 06:33N 55°38' E 015°11'1111.5
2014-Jul-26 05:33N 55°44' E 015°29'1111.4
2014-Jul-26 04:33N 55°50' E 015°46'1111.4
2014-Jul-26 03:33N 55°55' E 016°04'1111.3
2014-Jul-26 02:33N 56°01' E 016°21'1211.6
2014-Jul-26 01:33N 56°08' E 016°38'1111.1
2014-Jul-26 00:33N 56°17' E 016°50'1211.5
2014-Jul-25 23:33N 56°27' E 016°58'1211.5
2014-Jul-25 22:33N 56°38' E 017°05'1111.4
2014-Jul-25 21:33N 56°49' E 017°13'1111.3
2014-Jul-25 20:33N 56°59' E 017°20'1111.4
2014-Jul-25 19:33N 57°10' E 017°28'1111.2
2014-Jul-25 18:33N 57°20' E 017°35'1111.2
2014-Jul-25 17:33N 57°30' E 017°44'1111.5
2014-Jul-25 16:33N 57°40' E 017°54'1111.4
2014-Jul-25 15:33N 57°50' E 018°05'1111.4
2014-Jul-25 14:33N 58°00' E 018°16'1111.5
2014-Jul-25 13:33N 58°10' E 018°26'1111.4
2014-Jul-25 12:33N 58°20' E 018°37'1211.5
2014-Jul-25 11:33N 58°30' E 018°49'1212.1
2014-Jul-25 10:34N 58°40' E 019°00'1211.7
2014-Jul-25 09:33N 58°50' E 019°12'1111.4
2014-Jul-25 08:34N 59°00' E 019°23'1111.3
2014-Jul-25 07:33N 59°10' E 019°34'1111.3
2014-Jul-25 06:33N 59°20' E 019°45'1111.5
2014-Jul-25 05:33N 59°30' E 019°57'2410.8
2014-Jul-25 03:21N 59°51' E 019°34'911.4
2014-Jul-25 02:33N 59°58' E 019°23'1211.5
2014-Jul-25 01:33N 60°06' E 019°08'1110.8
2014-Jul-25 00:33N 60°17' E 019°00'1111.5
2014-Jul-24 23:34N 60°28' E 018°59'1211.3
2014-Jul-24 22:29N 60°40' E 019°03'  
2014-Jul-22 01:33N 58°54' E 019°21'1211.8
2014-Jul-22 00:33N 58°44' E 019°07'1211.7
2014-Jul-21 23:33N 58°34' E 018°55'1211.9
2014-Jul-21 22:33N 58°24' E 018°44'1211.8
2014-Jul-21 21:33N 58°14' E 018°33'1211.9
2014-Jul-21 20:33N 58°03' E 018°22'311.8
2014-Jul-21 20:18N 58°01' E 018°19'911.8
2014-Jul-21 19:33N 57°53' E 018°12'1212.0
2014-Jul-21 18:33N 57°42' E 018°02'1211.7
2014-Jul-21 17:33N 57°32' E 017°52'1211.7
2014-Jul-21 16:33N 57°21' E 017°43'1212.3
2014-Jul-21 15:33N 57°09' E 017°35'1212.0
2014-Jul-21 14:33N 56°58' E 017°28'1211.7
2014-Jul-21 13:33N 56°47' E 017°21'1313.1
2014-Jul-21 12:33N 56°35' E 017°13'1211.8
2014-Jul-21 11:33N 56°24' E 017°04'2511.7
2014-Jul-21 09:27N 56°02' E 016°43'1111.9
2014-Jul-21 08:33N 55°56' E 016°27'6 5.6
2014-Jul-21 07:33N 55°54' E 016°19'1311.4
2014-Jul-21 06:26N 55°48' E 015°58'1011.8
2014-Jul-21 05:33N 55°43' E 015°42'1211.7
2014-Jul-21 04:33N 55°38' E 015°23'1211.6
2014-Jul-21 03:33N 55°32' E 015°05'1211.7
2014-Jul-21 02:33N 55°26' E 014°47'1211.7
2014-Jul-21 01:33N 55°19' E 014°32'1211.8
2014-Jul-21 00:33N 55°09' E 014°19'1211.7
2014-Jul-20 23:33N 55°01' E 014°06'1211.8
2014-Jul-20 22:33N 54°57' E 013°46'1211.8
2014-Jul-20 21:33N 54°53' E 013°26'1211.9
2014-Jul-20 20:33N 54°50' E 013°07'1211.9
2014-Jul-20 19:33N 54°46' E 012°47'1211.9
2014-Jul-20 18:33N 54°40' E 012°30'1211.9
2014-Jul-20 17:33N 54°32' E 012°15'1010.3
2014-Jul-20 16:33N 54°24' E 012°02'1212.0
2014-Jul-20 15:33N 54°26' E 011°41'1211.7
2014-Jul-20 14:33N 54°31' E 011°24'1211.7
2014-Jul-20 13:33N 54°37' E 011°06'1110.8
2014-Jul-20 12:31N 54°44' E 010°52'1110.9
2014-Jul-20 11:29N 54°56' E 010°54'5210.6
2014-Jul-20 06:33N 55°48' E 010°48'1111.2
2014-Jul-20 05:33N 55°57' E 010°60'1111.5
2014-Jul-20 04:33N 56°07' E 011°10'1211.6
2014-Jul-20 03:33N 56°16' E 011°22'1211.6
2014-Jul-20 02:33N 56°26' E 011°33'1211.6
2014-Jul-20 01:32N 56°37' E 011°43'1211.1
2014-Jul-20 00:28N 56°48' E 011°51'1211.8
2014-Jul-19 23:25N 56°59' E 011°43'  

Dump ship's entire track history